Tiempo atmosférico en la estación meteorológica de Tortosa, Tarragona (44 m.)



Fecha
DESCASC
Temp. máxima en grados centígrados (hora)
DESCASC
Temp. mínima en grados centígrados (hora)
DESCASC
Temp. media en grados centígrados
DESCASC
Racha de viento máxima en m/sg (hora)
DESCASC
Velocidad máxima media en intervalos de 10 minutos(hora)
DESCASC
Precipitaciones diarias en mm
DESCASC
Precipitaciones de 00:00 a 06:00 en mm
DESCASC
Precipitaciones de 06:00 a 12:00 en mm
DESCASC
Precipitaciones de 12:00 a 18:00 en mm
DESCASC
Precipitaciones de 18:00 a 24:00 en mm
DESCASC

Gráficas

Temp. máximas Temp. mínimas Temp. medias Precipitaciones Rachas de viento máximas Velocidades máximas media en intervalos de 10 minutos

Datos horarios

Fecha y hora oficial Temperatura (ºC) Velocidad del viento (km/h) Dirección del viento Racha (km/h) Dirección de racha Precipitación (mm) Presión (hPa) Tendencia (hPa) Humedad (%)
2020-09-19 23:00:00 23.2 8 Noroeste 12 Norte 0 1009.6 1.9 56
2020-09-19 22:00:00 22.5 6 Norte 10 Oeste 0 1009.2 1.8 66
2020-09-19 21:00:00 23.7 8 Noroeste 12 Noroeste 0 1008.3 1.3 61
2020-09-19 20:00:00 25.7 4 Sur 6 Sur 0 1007.7 0.3 51
2020-09-19 19:00:00 26.8 4 Este 9 Oeste 0 1007.4 0 46
2020-09-19 18:00:00 27 4 Sudoeste 18 Sudeste 0 1007 -0.6 47
2020-09-19 17:00:00 27.5 10 Sur 28 Sur 0 1007.4 -1 53
2020-09-19 16:00:00 30.4 13 Sudeste 26 Sudeste 0 1007.4 -1.6 46
2020-09-19 15:00:00 29.8 13 Sur 28 Sur 0 1007.6 -- 51
2020-09-19 14:00:00 30.4 12 Sudeste 26 Este 0 1008.4 -- 49
2020-09-19 13:00:00 30.1 6 Sudeste 16 Sur 0 1009 -- 47
2020-09-19 12:00:00 28.1 5 Sur 14 Sudeste 0 1009.4 -- 55
2020-09-19 11:00:00 25.8 3 Este 9 Nordeste 0 1010 -- 68
2020-09-19 10:00:00 22.1 3 Norte 8 Sur 0 1009.8 -- 80
2020-09-19 09:00:00 19.1 3 Norte 6 Norte 0 1009.4 -- 92
2020-09-19 08:00:00 18 3 Norte 9 Norte 0 1008.9 -- 97
2020-09-19 07:00:00 18.1 4 Noroeste 12 Norte 0 1009 -- 94
2020-09-19 06:00:00 18.4 5 Noroeste 7 Noroeste 0 1008.9 -- 94
2020-09-19 05:00:00 18.9 6 Oeste 9 Oeste 0 1009.8 -- 93
2020-09-19 04:00:00 19 0 Calma 8 Noroeste 0 1009.9 -- 91
2020-09-19 03:00:00 19.4 0 Calma 4 Nordeste 0 1010.4 -- 92
2020-09-19 02:00:00 19.4 3 Nordeste 9 Noroeste 0 1010.7 -- 92
2020-09-19 01:00:00 19.9 6 Norte 11 Oeste 0 1010.9 -- 91
2020-09-19 00:00:00 20.6 6 Sudoeste 13 Sudeste 0 1010.8 -- 90
2020-09-18 23:00:00 21.2 6 Este 20 Oeste 0 1010.3 -- 87
2020-09-18 22:00:00 21.6 5 Nordeste 12 Nordeste 0 1009.7 -- 88
2020-09-18 21:00:00 21.5 7 Sur 13 Sudoeste 0 1010.4 -- 89
2020-09-18 20:00:00 22.5 6 Sudeste 19 Sur 0 1009.9 -- 82
2020-09-18 19:00:00 23.5 13 Sudeste 26 Este 0 1009.7 -- 79
2020-09-18 18:00:00 23.3 13 Sudeste 22 Este 0 1010.3 -- 77
2020-09-18 17:00:00 23.3 11 Este 30 Sudeste 0 1010.9 -- 75
2020-09-18 16:00:00 23.6 14 Este 29 Sudeste 0 1010.6 -- 75
2020-09-18 15:00:00 23.6 12 Sudeste 25 Sudeste 0 1011.1 -- 74
2020-09-18 14:00:00 23.7 10 Sur 18 Sur 0 1011.6 -- 81
2020-09-18 13:00:00 24.1 6 Sur 11 Sur 0 1011.4 -- 79
2020-09-18 12:00:00 21.4 7 Noroeste 12 Noroeste 0 1012.2 -- 93
2020-09-18 11:00:00 20.3 5 Este 12 Sur 0.4 1012.2 -- 95
2020-09-18 10:00:00 20.4 5 Sudeste 19 Sudeste 3.2 1011.8 -- 93
2020-09-18 09:00:00 21.6 7 Sudoeste 10 Sudoeste 0 1011.1 -- 84
2020-09-18 08:00:00 21.7 6 Sudoeste 9 Sudoeste 0 1010.4 -- 88
2020-09-18 07:00:00 21.5 5 Sudoeste 8 Sur 0 1010 -- 85
2020-09-18 06:00:00 21.4 5 Sur 9 Sur 0 1009.8 -- 88
2020-09-18 05:00:00 21.2 6 Sur 12 Sur 0 1009.6 -- 89
2020-09-18 04:00:00 21.3 8 Sudeste 14 Sudeste 0 1009.7 -- 89
2020-09-18 03:00:00 21.3 10 Sudeste 16 Sur 0 1010 -- 88
2020-09-18 02:00:00 21.4 9 Sudeste 14 Sudeste 0 1010.2 -- 87
2020-09-18 01:00:00 21.9 10 Sudeste 16 Sudeste 0 1010.9 -- 87
2020-09-18 00:00:00 22.4 11 Sur 15 Sur 0 1011 -- 86
2020-09-17 23:00:00 23 6 Sur 13 Sur 0 1011.1 -- 81
2020-09-17 22:00:00 24.2 10 Sudeste 17 Sudeste 0 1010.7 -- 83
2020-09-17 21:00:00 25 11 Sudeste 24 Sudeste 0 1009.8 -- 82
2020-09-17 20:00:00 25.7 13 Sudeste 27 Sudeste 0 1009.7 -- 78
2020-09-17 19:00:00 26.6 10 Sudeste 29 Sudeste 0 1009.7 -- 71
2020-09-17 18:00:00 27.2 11 Sudeste 30 Sudeste 0 1009.8 -- 66
2020-09-17 17:00:00 27.9 15 Sudeste 35 Sudeste 0 1010 -- 66
2020-09-17 16:00:00 31 18 Sudeste 41 Sudeste 0 1009.9 -- 55
2020-09-17 15:00:00 31.6 15 Sudeste 27 Sudeste 0 1010.1 -- 47
2020-09-17 14:00:00 29.8 10 Sudeste 24 Sudeste 0 1010.8 -- 50
2020-09-17 13:00:00 26.6 6 Sur 13 Sur 0 1011.4 -- 66
2020-09-17 12:00:00 23.3 4 Nordeste 8 Nordeste 0 1011.5 -- 79
2020-09-17 11:00:00 21.7 0 Calma 5 Este 0 1011.8 -- 85
2020-09-17 10:00:00 20.9 2 Norte 4 Norte 0 1011.6 -- 89
2020-09-17 09:00:00 20 0 Calma 5 Sudoeste 0 1011.6 -- 91
2020-09-17 08:00:00 19.6 4 Sudoeste 5 Sudoeste 0 1011.6 -- 92
2020-09-17 07:00:00 19.7 3 Noroeste 7 Norte 0 1011.1 -- 91
2020-09-17 06:00:00 20 4 Norte 6 Norte 0 1011.4 -- 91
2020-09-17 05:00:00 20.4 0 Calma 4 Nordeste 0 1011.7 -- 91
2020-09-17 04:00:00 20.7 0 Calma 4 Nordeste 0 1012 -- 89
2020-09-17 03:00:00 21.3 3 Nordeste 5 Norte 0 1012.3 -- 88
2020-09-17 02:00:00 22.1 3 Nordeste 8 Sudoeste 0 1012.5 -- 87
2020-09-17 01:00:00 22.5 6 Sudoeste 11 Sudoeste 0 1013 -- 87
2020-09-17 00:00:00 23 8 Oeste 11 Oeste 0 1013 -- 84
2020-09-16 23:00:00 23.3 4 Sur 7 Sur 0 1012.7 -- 83
2020-09-16 22:00:00 23.9 4 Sur 9 Sudeste 0 1012.8 -- 78
2020-09-16 21:00:00 24.9 5 Sur 13 Sudeste 0 1012.3 -- 74
2020-09-16 20:00:00 26.1 7 Sudeste 24 Sudeste 0 1011.8 -- 68
2020-09-16 19:00:00 27.8 13 Sudeste 26 Sudeste 0 1011.8 -- 59
2020-09-16 18:00:00 28.5 12 Sudeste 31 Sudeste 0 1011.6 -- 59
2020-09-16 17:00:00 31 16 Sudeste 32 Sudeste 0 1011.8 -- 45
2020-09-16 16:00:00 32.6 13 Sudeste 27 Sudeste 0 1012.1 -- 40
2020-09-16 15:00:00 33.6 13 Sudeste 26 Sudeste 0 1012.6 -- 43
2020-09-16 14:00:00 32.4 10 Sudeste 21 Sur 0 1013.3 -- 46
2020-09-16 13:00:00 32.3 9 Sudeste 18 Sudeste 0 1013.8 -- 46
2020-09-16 12:00:00 30.3 7 Sur 14 Sur 0 1014.3 -- 43
2020-09-16 11:00:00 27.5 4 Sudeste 9 Este 0 1014.6 -- 64
2020-09-16 10:00:00 24.2 0 Calma 6 Norte 0 1014.7 -- 77
2020-09-16 09:00:00 21 3 Norte 7 Noroeste 0 1014.7 -- 87
2020-09-16 08:00:00 19.8 4 Norte 6 Noroeste 0 1014.3 -- 89
2020-09-16 07:00:00 20.3 5 Noroeste 6 Noroeste 0 1014.1 -- 88
2020-09-16 06:00:00 20.4 6 Noroeste 7 Noroeste 0 1014.1 -- 88
2020-09-16 05:00:00 21.1 2 Nordeste 4 Nordeste 0 1014.3 -- 90
2020-09-16 04:00:00 21.9 2 Sur 4 Sudoeste 0 1014.4 -- 89
2020-09-16 03:00:00 22.7 4 Sudoeste 5 Sudoeste 0 1014.6 -- 89
2020-09-16 02:00:00 23.2 4 Sudoeste 8 Sudoeste 0 1015 -- 88
2020-09-16 01:00:00 23.7 3 Sudoeste 6 Sudeste 0 1015 -- 85
2020-09-16 00:00:00 24.2 5 Sudeste 10 Sur 0 1015.2 -- 83
2020-09-15 23:00:00 24.6 5 Sur 12 Sudeste 0 1015.1 -- 81
2020-09-15 22:00:00 25.1 7 Sudeste 14 Sudeste 0 1014.9 -- 77
2020-09-15 21:00:00 25.6 8 Sudeste 20 Sudeste 0 1014.3 -- 68
2020-09-15 20:00:00 26.5 10 Sudeste 18 Sudeste 0 1014.3 -- 65
2020-09-15 19:00:00 28.5 12 Sudeste 23 Sudeste 0 1013.7 -- 56
2020-09-15 18:00:00 29.6 8 Sudeste 31 Sudeste 0 1013.8 -- 52
2020-09-15 17:00:00 30.1 12 Sudeste 30 Este 0 1013.9 -- 51
2020-09-15 16:00:00 32.3 14 Sudeste 30 Este 0 1014.3 -- 41
2020-09-15 15:00:00 32.2 16 Sudeste 27 Sudeste 0 1014.9 -- 41
2020-09-15 14:00:00 33.8 12 Sur 21 Sur 0 1015.4 -- 41
2020-09-15 13:00:00 32.3 9 Sur 17 Sur 0 1016.1 -- 41
2020-09-15 12:00:00 30 6 Sudeste 12 Sur 0 1016.8 -- 42
2020-09-15 11:00:00 27 5 Este 11 Este 0 1016.9 -- 57
2020-09-15 10:00:00 22.8 3 Noroeste 11 Norte 0 1016.5 -- 78
2020-09-15 09:00:00 21.4 5 Nordeste 10 Nordeste 0 1016.1 -- 84
2020-09-15 08:00:00 20.7 7 Noroeste 11 Noroeste 0 1016.3 -- 87
2020-09-15 07:00:00 20.3 6 Sur 16 Noroeste 0 1016.5 -- 86
2020-09-15 06:00:00 20.3 0 Calma 8 Nordeste 0 1015.9 -- 86
2020-09-15 05:00:00 20.5 4 Oeste 9 Noroeste 0 1016.4 -- 84
2020-09-15 04:00:00 20.7 7 Sudoeste 13 Sur 0 1017 -- 86
2020-09-15 03:00:00 21 7 Sur 12 Sudoeste 0 1017.2 -- 90
2020-09-15 02:00:00 21.5 9 Sudoeste 14 Sudeste 0 1017.4 -- 87
2020-09-15 01:00:00 22 6 Sur 21 Sudeste 0 1017.4 -- 88
2020-09-15 00:00:00 22.3 8 Sur 14 Sur 0 1017.2 -- 87
2020-09-14 23:00:00 23.1 7 Sur 14 Sudeste 0 1017.1 -- 83
2020-09-14 22:00:00 23.7 7 Sur 19 Sudeste 0 1017.1 -- 80
2020-09-14 21:00:00 24.5 10 Sudeste 21 Sudeste 0 1016.5 -- 72
2020-09-14 20:00:00 25.9 11 Sudeste 24 Sudeste 0 1016.1 -- 67
2020-09-14 19:00:00 27.9 12 Sudeste 27 Sudeste 0 1016.2 -- 53
2020-09-14 18:00:00 29.8 14 Sudeste 30 Sur 0 1016.4 -- 50
2020-09-14 17:00:00 31 12 Sudeste 30 Sudeste 0 1016.6 -- 47
2020-09-14 16:00:00 32.2 13 Sudeste 31 Sur 0 1017 -- 44
2020-09-14 15:00:00 31.8 14 Este 32 Sudeste 0 1017.4 -- 49
2020-09-14 14:00:00 33.9 13 Sudeste 23 Sudeste 0 1018 -- 38
2020-09-14 13:00:00 32.8 12 Sur 23 Sur 0 1018.3 -- 39
2020-09-14 12:00:00 30.7 10 Sur 17 Sur 0 1018.7 -- 48
2020-09-14 11:00:00 27.9 6 Sur 14 Sur 0 1019 -- 64
2020-09-14 10:00:00 24.8 4 Sudeste 6 Este 0 1018.9 -- 67
2020-09-14 09:00:00 21 0 Calma 7 Noroeste 0 1018.8 -- 75
2020-09-14 08:00:00 19.1 5 Norte 9 Noroeste 0 1018.5 -- 82
2020-09-14 07:00:00 18.9 8 Noroeste 9 Noroeste 0 1018 -- 80
2020-09-14 06:00:00 19.2 8 Noroeste 9 Noroeste 0 1018 -- 81
2020-09-14 05:00:00 19.5 5 Norte 8 Norte 0 1017.9 -- 83
2020-09-14 04:00:00 20.1 4 Nordeste 5 Este 0 1018 -- 82
2020-09-14 03:00:00 20.8 0 Calma 11 Oeste 0 1018.3 -- 85
2020-09-14 02:00:00 21.1 8 Oeste 10 Oeste 0 1018.5 -- 76
2020-09-14 01:00:00 21.8 6 Sudoeste 10 Sudoeste 0 1018.4 -- 77
2020-09-14 00:00:00 22.8 5 Sur 12 Sur 0 1018.3 -- 74
2020-09-13 23:00:00 23.5 6 Sur 14 Sudeste 0 1018.3 -- 71
2020-09-13 22:00:00 24.6 9 Sur 15 Sudeste 0 1018.1 -- 66
2020-09-13 21:00:00 26.1 7 Sur 13 Sudeste 0 1017.4 -- 55
2020-09-13 20:00:00 28.4 8 Sudeste 24 Sudeste 0 1017.2 -- 44
2020-09-13 19:00:00 30.6 12 Sudeste 26 Sudeste 0 1017 -- 34
2020-09-13 18:00:00 32.7 17 Sudeste 30 Sudeste 0 1016.9 -- 27
2020-09-13 17:00:00 34 17 Sudeste 34 Sudeste 0 1016.8 -- 26
2020-09-13 16:00:00 33.8 18 Sudeste 33 Este 0 1017.1 -- 27
2020-09-13 15:00:00 34 16 Sudeste 30 Sudeste 0 1017.3 -- 29
2020-09-13 14:00:00 35.2 13 Sudeste 24 Sudeste 0 1017.5 -- 31
2020-09-13 13:00:00 34.3 10 Sudeste 17 Sudeste 0 1017.8 -- 31
2020-09-13 12:00:00 32 8 Sur 13 Sur 0 1018.3 -- 35
2020-09-13 11:00:00 28.9 2 Nordeste 8 Nordeste 0 1018.1 -- 42
2020-09-13 10:00:00 25.3 4 Norte 12 Norte 0 1017.9 -- 51
2020-09-13 09:00:00 19.9 4 Norte 8 Noroeste 0 1017.6 -- 68
2020-09-13 08:00:00 17.3 5 Norte 8 Noroeste 0 1017.2 -- 76
2020-09-13 07:00:00 17.4 3 Norte 9 Noroeste 0 1016.6 -- 76
2020-09-13 06:00:00 18.1 5 Norte 8 Norte 0 1016.2 -- 73
2020-09-13 05:00:00 18.7 7 Norte 9 Norte 0 1016.3 -- 71
2020-09-13 04:00:00 19.5 4 Norte 6 Norte 0 1016.3 -- 73
2020-09-13 03:00:00 20.2 0 Calma 6 Norte 0 1016.3 -- 74
2020-09-13 02:00:00 21.2 5 Norte 5 Norte 0 1016.4 -- 71
2020-09-13 01:00:00 22.1 4 Este 10 Sur 0 1016.4 -- 69
2020-09-13 00:00:00 22.9 7 Sur 10 Sur 0 1016.3 -- 66
2020-09-12 23:00:00 23.6 6 Sur 14 Sudeste 0 1015.8 -- 64
2020-09-12 22:00:00 24.5 10 Sur 14 Sudeste 0 1015.1 -- 59
2020-09-12 21:00:00 26.1 9 Sudeste 20 Sur 0 1014.3 -- 50
2020-09-12 20:00:00 28.4 12 Sur 27 Sudoeste 0 1013.7 -- 40
2020-09-12 19:00:00 31.1 14 Sur 30 Sur 0 1013.3 -- 31
2020-09-12 18:00:00 31.8 13 Sudeste 32 Sudeste 0 1012.9 -- 31
2020-09-12 17:00:00 32.2 18 Sudeste 34 Sudeste 0 1012.8 -- 28
2020-09-12 16:00:00 34 17 Sudeste 32 Sudeste 0 1012.8 -- 31
2020-09-12 15:00:00 34.9 14 Sur 27 Sudeste 0 1013 -- 34
2020-09-12 14:00:00 34.5 8 Sudeste 17 Sudeste 0 1013.2 -- 26
2020-09-12 13:00:00 33 5 Este 12 Nordeste 0 1013.4 -- 29
2020-09-12 12:00:00 31.4 4 Nordeste 17 Nordeste 0 1013.6 -- 33
2020-09-12 11:00:00 28.3 9 Norte 21 Noroeste 0 1013.6 -- 42
2020-09-12 10:00:00 24.4 3 Norte 9 Noroeste 0 1013.2 -- 60
2020-09-12 09:00:00 20.5 0 Calma 12 Norte 0 1013.1 -- 79
2020-09-12 08:00:00 18.4 6 Norte 13 Noroeste 0 1012.3 -- 86
2020-09-12 07:00:00 18.5 7 Noroeste 17 Norte 0 1011.8 -- 85
2020-09-12 06:00:00 18.4 4 Norte 10 Noroeste 0 1011.9 -- 84
2020-09-12 05:00:00 19.1 4 Norte 6 Norte 0 1011.6 -- 82
2020-09-12 04:00:00 19.7 4 Norte 5 Norte 0 1011.5 -- 84
2020-09-12 03:00:00 20.2 3 Sudeste 4 Sudeste 0 1011.5 -- 80
2020-09-12 02:00:00 20.9 2 Nordeste 5 Este 0 1011.5 -- 77
2020-09-12 01:00:00 22 5 Oeste 10 Sudoeste 0 1011.6 -- 76
2020-09-12 00:00:00 22.5 8 Sudoeste 13 Sudoeste 0 1011.6 -- 75
2020-09-11 23:00:00 23 6 Sudoeste 12 Sudeste 0 1011.3 -- 73
2020-09-11 22:00:00 23.6 7 Sur 13 Sudeste 0 1010.7 -- 66
2020-09-11 21:00:00 25.1 7 Sudeste 19 Sudeste 0 1009.4 -- 56
2020-09-11 20:00:00 27.3 8 Sudeste 22 Sudeste 0 1008.7 -- 37
2020-09-11 19:00:00 29.3 12 Sudeste 23 Sudeste 0 1008.6 -- 36
2020-09-11 18:00:00 30.5 9 Sudeste 30 Sudeste 0 1008.4 -- 35
2020-09-11 17:00:00 32.5 14 Sudeste 29 Sudeste 0 1008.3 -- 33
2020-09-11 16:00:00 33.7 16 Sudeste 27 Sudeste 0 1008.3 -- 30
2020-09-11 15:00:00 34.2 9 Sudeste 21 Nordeste 0 1008.6 -- 30
2020-09-11 14:00:00 34.5 7 Nordeste 31 Norte 0 1009 -- 26
2020-09-11 13:00:00 33.8 13 Norte 28 Nordeste 0 1009.4 -- 27
2020-09-11 12:00:00 32.5 12 Nordeste 29 Nordeste 0 1009.6 -- 31
2020-09-11 11:00:00 30.1 13 Nordeste 29 Nordeste 0 1009.9 -- 36
2020-09-11 10:00:00 26.9 13 Norte 25 Norte 0 1009.6 -- 41
2020-09-11 09:00:00 23.1 11 Norte 22 Norte 0 1009.6 -- 51
2020-09-11 08:00:00 20.5 12 Norte 21 Norte 0 1009.5 -- 58
2020-09-11 07:00:00 18.9 8 Norte 15 Norte 0 1009.5 -- 68
2020-09-11 06:00:00 18.5 3 Oeste 7 Este 0 1009.5 -- 85
2020-09-11 05:00:00 19 3 Sudoeste 7 Oeste 0 1009.4 -- 83
2020-09-11 04:00:00 19.7 6 Norte 12 Norte 0 1009.8 -- 80
2020-09-11 03:00:00 20.3 6 Noroeste 10 Noroeste 0 1010.3 -- 78
2020-09-11 02:00:00 20.9 5 Norte 9 Norte 0 1010.7 -- 77
2020-09-11 01:00:00 22 4 Este 9 Sudeste 0 1011.2 -- 72
2020-09-11 00:00:00 22.9 4 Sudoeste 11 Sur 0 1011.8 -- 72
2020-09-10 23:00:00 23.2 4 Sudeste 9 Sudoeste 0 1012.1 -- 72
2020-09-10 22:00:00 23.5 6 Sur 19 Este 0 1011.7 -- 71
2020-09-10 21:00:00 24.9 11 Este 19 Este 0 1011 -- 58
2020-09-10 20:00:00 26.7 8 Sur 21 Sur 0 1010.3 -- 49
2020-09-10 19:00:00 28.6 16 Sur 30 Sur 0 1010.1 -- 43
2020-09-10 18:00:00 30.8 16 Sur 31 Sudeste 0 1010.1 -- 40
2020-09-10 17:00:00 31.5 11 Sudeste 30 Sudeste 0 1010.5 -- 39
2020-09-10 16:00:00 31.7 13 Sudeste 33 Sudeste 0 1011.2 -- 38
2020-09-10 15:00:00 33.1 14 Sudeste 28 Sur 0 1011.7 -- 37
2020-09-10 14:00:00 31.5 5 Sudeste 16 Sudeste 0 1012.3 -- 35
2020-09-10 13:00:00 30.8 8 Sur 15 Sur 0 1013 -- 38
2020-09-10 12:00:00 29.1 6 Oeste 13 Nordeste 0 1013.8 -- 41
2020-09-10 11:00:00 27.9 6 Nordeste 15 Nordeste 0 1014.1 -- 44
2020-09-10 10:00:00 25.3 8 Nordeste 14 Nordeste 0 1014.1 -- 55
2020-09-10 09:00:00 21.8 4 Nordeste 17 Noroeste 0 1014 -- 71
2020-09-10 08:00:00 18.6 10 Norte 17 Norte 0 1014 -- 83
2020-09-10 07:00:00 18.3 8 Noroeste 13 Norte 0 1013.9 -- 84
2020-09-10 06:00:00 18 6 Norte 10 Norte 0 1014.2 -- 87
2020-09-10 05:00:00 18.6 6 Norte 11 Norte 0 1014.5 -- 84
2020-09-10 04:00:00 19.1 5 Norte 9 Norte 0 1014.4 -- 83
2020-09-10 03:00:00 19.3 5 Norte 6 Norte 0 1014.6 -- 83
2020-09-10 02:00:00 19.8 3 Noroeste 5 Nordeste 0 1014.8 -- 81
2020-09-10 01:00:00 20.6 2 Nordeste 5 Sudeste 0 1015.5 -- 78
2020-09-10 00:00:00 20.6 3 Este 5 Sudeste 0 1016 -- 78
2020-09-09 23:00:00 21 3 Sudoeste 9 Sudoeste 0 1015.9 -- 78
2020-09-09 22:00:00 21.5 7 Sudoeste 10 Sudoeste 0 1015.8 -- 75
2020-09-09 21:00:00 22 6 Sur 14 Sur 0 1015.1 -- 74
2020-09-09 20:00:00 22.8 9 Sur 18 Sur 0 1014.9 -- 70
2020-09-09 19:00:00 23.8 9 Sudeste 19 Sur 0 1014.7 -- 64
2020-09-09 18:00:00 24.6 10 Sur 19 Sur 0 1014.8 -- 64
2020-09-09 17:00:00 26.2 12 Sur 22 Sur 0 1014.7 -- 59
2020-09-09 16:00:00 27.7 11 Sudeste 23 Sudeste 0 1015 -- 53
2020-09-09 15:00:00 26.2 10 Sudeste 25 Este 0 1015.5 -- 58
2020-09-09 14:00:00 28.3 4 Norte 23 Norte 0 1015.6 -- 41
2020-09-09 13:00:00 29 9 Norte 31 Norte 0 1016.1 -- 40
2020-09-09 12:00:00 27.1 7 Nordeste 19 Nordeste 0 1016.6 -- 45
2020-09-09 11:00:00 24.1 6 Norte 15 Nordeste 0 1017 -- 57
2020-09-09 10:00:00 21.2 6 Noroeste 10 Noroeste 0 1016.7 -- 69
2020-09-09 09:00:00 20.3 3 Norte 8 Norte 0 1016.4 -- 70
2020-09-09 08:00:00 19.6 3 Noroeste 7 Norte 0 1016.3 -- 73
2020-09-09 07:00:00 19.5 4 Norte 14 Norte 0 1016.1 -- 75
2020-09-09 06:00:00 19.1 6 Norte 13 Norte 0 1016.1 -- 76
2020-09-09 05:00:00 18.6 4 Norte 12 Noroeste 0 1016 -- 78
2020-09-09 04:00:00 18.8 9 Noroeste 12 Norte 0 1016.4 -- 79
2020-09-09 03:00:00 19.6 4 Noroeste 10 Oeste 0 1016.6 -- 76
2020-09-09 02:00:00 20 4 Norte 9 Nordeste 0 1017.3 -- 77
2020-09-09 01:00:00 20.8 4 Nordeste 17 Sudoeste 0 1017.6 -- 72
2020-09-09 00:00:00 21.4 13 Sudoeste 19 Oeste 0 1017.8 -- 69
2020-09-08 23:00:00 22.9 7 Sudeste 21 Sur 0 1017.8 -- 67
2020-09-08 22:00:00 23.2 8 Oeste 15 Sudeste 0 1017.8 -- 61
2020-09-08 21:00:00 24.3 9 Sudeste 18 Sudeste 0 1017.7 -- 55
2020-09-08 20:00:00 25.2 4 Norte 14 Sudeste 0 1017.2 -- 46
2020-09-08 19:00:00 26.1 9 Sudeste 16 Sur 0 1017 -- 40
2020-09-08 18:00:00 27.8 10 Sudeste 26 Este 0 1017.1 -- 35
2020-09-08 17:00:00 27.9 14 Sudeste 30 Sudeste 0 1016.9 -- 34
2020-09-08 16:00:00 29.6 15 Este 23 Este 0 1016.9 -- 27
2020-09-08 15:00:00 31.1 11 Norte 27 Norte 0 1017.2 -- 23
2020-09-08 14:00:00 30.7 10 Nordeste 31 Nordeste 0 1017.7 -- 24
2020-09-08 13:00:00 29.4 12 Norte 28 Norte 0 1018.2 -- 27
2020-09-08 12:00:00 26.8 17 Norte 34 Norte 0 1018.7 -- 32
2020-09-08 11:00:00 25.1 13 Norte 34 Norte 0 1018.8 -- 37
2020-09-08 10:00:00 21.8 15 Norte 28 Norte 0 1018.4 -- 44
2020-09-08 09:00:00 18.3 10 Norte 21 Norte 0 1018.1 -- 52
2020-09-08 08:00:00 16.6 10 Norte 20 Norte 0 1017.8 -- 57
2020-09-08 07:00:00 16.2 10 Norte 20 Norte 0 1017.5 -- 60
2020-09-08 06:00:00 15.7 9 Norte 16 Norte 0 1017.3 -- 70
2020-09-08 05:00:00 16.3 10 Norte 15 Noroeste 0 1017.4 -- 81
2020-09-08 04:00:00 16.8 8 Norte 15 Oeste 0 1017.4 -- 79
2020-09-08 03:00:00 17.4 12 Sudoeste 16 Oeste 0 1018.1 -- 77
2020-09-08 02:00:00 18.3 7 Sudoeste 26 Este 0 1018.6 -- 74
2020-09-08 01:00:00 19.3 10 Este 24 Este 0 1018 -- 76
2020-09-08 00:00:00 18.9 7 Norte 15 Sur 0 1017.3 -- 74
2020-09-07 23:00:00 20 8 Sur 14 Sudeste 0 1016.4 -- 74
2020-09-07 22:00:00 20.6 8 Sudeste 15 Sur 0 1016.2 -- 70
2020-09-07 21:00:00 21.7 10 Sur 22 Sur 0 1015.2 -- 64
2020-09-07 20:00:00 22.7 14 Sur 28 Sudeste 0 1014.3 -- 58
2020-09-07 19:00:00 24.1 16 Sudeste 31 Este 0 1013.8 -- 53
2020-09-07 18:00:00 26.8 16 Sudeste 29 Sudeste 0 1013.2 -- 39
2020-09-07 17:00:00 28.7 13 Sudeste 28 Sudeste 0 1012.9 -- 34
2020-09-07 16:00:00 29.3 7 Sur 28 Noroeste 0 1013.2 -- 31
2020-09-07 15:00:00 28.5 9 Oeste 22 Noroeste 0 1013.5 -- 26
2020-09-07 14:00:00 28.3 8 Norte 21 Nordeste 0 1013.9 -- 27
2020-09-07 13:00:00 26.2 9 Oeste 41 Oeste 0 1014.2 -- 30
2020-09-07 12:00:00 23.5 20 Oeste 39 Noroeste 0 1014.6 -- 36
2020-09-07 11:00:00 22.8 20 Noroeste 53 Noroeste 0 1014.5 -- 37
2020-09-07 10:00:00 21 24 Noroeste 47 Noroeste 0 1014.4 -- 42
2020-09-07 09:00:00 19.4 11 Noroeste 46 Oeste 0 1013.9 -- 47
2020-09-07 08:00:00 19.2 20 Noroeste 44 Noroeste 0 1012.3 -- 46
2020-09-07 07:00:00 19.6 13 Noroeste 51 Noroeste 0 1011.8 -- 45
2020-09-07 06:00:00 19.7 27 Noroeste 58 Noroeste 0 1011.7 -- 45
2020-09-07 05:00:00 20.4 24 Noroeste 56 Noroeste 0 1011.5 -- 44
2020-09-07 04:00:00 20.9 25 Noroeste 60 Oeste 0 1011.5 -- 43
2020-09-07 03:00:00 21 26 Noroeste 53 Noroeste 0 1011.3 -- 45
2020-09-07 02:00:00 21.9 27 Oeste 53 Noroeste 0 1011.6 -- 43
2020-09-07 01:00:00 22.3 18 Oeste 47 Noroeste 0 1012.1 -- 45
2020-09-07 00:00:00 21.9 23 Noroeste 43 Noroeste 0.2 1011.8 -- 47
2020-09-06 23:00:00 24.7 23 Oeste 42 Oeste 0 1011.8 -- 38
2020-09-06 22:00:00 25.5 17 Noroeste 36 Noroeste 0 1010.9 -- 39
2020-09-06 21:00:00 26 8 Noroeste 17 Sur 0 1010.3 -- 43
2020-09-06 20:00:00 27.6 9 Sudeste 25 Sur 0 1009.8 -- 54
2020-09-06 19:00:00 29.8 14 Sur 27 Sudeste 0 1009.7 -- 52
2020-09-06 18:00:00 31.5 13 Sur 25 Sudeste 0 1009.6 -- 46
2020-09-06 17:00:00 32.8 11 Sudeste 24 Sudeste 0 1010.1 -- 40
2020-09-06 16:00:00 33.3 12 Sudeste 21 Sudeste 0 1010.4 -- 35
2020-09-06 15:00:00 32.2 7 Este 22 Nordeste 0 1011 -- 32
2020-09-06 14:00:00 32.5 9 Nordeste 26 Nordeste 0 1011.5 -- 32
2020-09-06 13:00:00 30.8 13 Norte 28 Norte 0 1012.2 -- 34
2020-09-06 12:00:00 28.9 10 Noroeste 28 Norte 0 1012.5 -- 38
2020-09-06 11:00:00 27.5 14 Noroeste 36 Noroeste 0 1012.7 -- 41
2020-09-06 10:00:00 25.9 12 Noroeste 24 Noroeste 0 1012.7 -- 44
2020-09-06 09:00:00 23.4 9 Norte 23 Norte 0 1012.7 -- 54
2020-09-06 08:00:00 21.2 12 Norte 23 Norte 0 1012.5 -- 59
2020-09-06 07:00:00 21.1 11 Norte 21 Norte 0 1012.3 -- 60
2020-09-06 06:00:00 21.3 9 Norte 19 Nordeste 0 1012.4 -- 60
2020-09-06 05:00:00 21.7 10 Norte 20 Norte 0 1012.6 -- 60
2020-09-06 04:00:00 22.1 10 Norte 26 Noroeste 0 1012.7 -- 61
2020-09-06 03:00:00 21.7 13 Norte 29 Norte 0 1012.8 -- 74
2020-09-06 02:00:00 21.6 10 Norte 17 Nordeste 0 1013.2 -- 84
2020-09-06 01:00:00 21.7 6 Noroeste 8 Noroeste 0 1013.6 -- 81
2020-09-06 00:00:00 22.7 4 Sudoeste 8 Oeste 0 1013.8 -- 79
2020-09-05 23:00:00 23.2 5 Sur 7 Sur 0 1013.8 -- 77
2020-09-05 22:00:00 23.8 5 Sur 12 Sudeste 0 1013.7 -- 74
2020-09-05 21:00:00 24.9 7 Sudeste 19 Sudeste 0 1013.1 -- 70
2020-09-05 20:00:00 26.2 10 Sudeste 31 Este 0 1012.8 -- 64
2020-09-05 19:00:00 27.7 15 Sudeste 33 Sudeste 0 1012.7 -- 57
2020-09-05 18:00:00 29.6 15 Sudeste 29 Sudeste 0 1012.7 -- 54
2020-09-05 17:00:00 31.1 13 Sudeste 28 Sudeste 0 1012.8 -- 50
2020-09-05 16:00:00 32.7 13 Sudeste 28 Sur 0 1013.5 -- 45
2020-09-05 15:00:00 33 14 Sudeste 27 Sudeste 0 1014.2 -- 43
2020-09-05 14:00:00 32.7 11 Sur 25 Este 0 1014.5 -- 43
2020-09-05 13:00:00 30.9 9 Sudeste 17 Sudeste 0 1015 -- 46
2020-09-05 12:00:00 29.8 9 Sudeste 19 Sudeste 0 1015.5 -- 49
2020-09-05 11:00:00 27.7 5 Sudeste 13 Sudeste 0 1015.9 -- 54
2020-09-05 10:00:00 23.8 4 Este 7 Sudeste 0 1016 -- 62
2020-09-05 09:00:00 20.1 3 Norte 6 Nordeste 0 1015.9 -- 74
2020-09-05 08:00:00 17.3 2 Norte 6 Noroeste 0 1015.7 -- 85
2020-09-05 07:00:00 17.6 0 Calma 9 Noroeste 0 1015.6 -- 85
2020-09-05 06:00:00 18 6 Norte 9 Noroeste 0 1015.6 -- 86
2020-09-05 05:00:00 18.7 4 Nordeste 5 Nordeste 0 1015.8 -- 86
2020-09-05 04:00:00 19.4 3 Sudeste 8 Sudoeste 0 1016.2 -- 83
2020-09-05 03:00:00 19.9 6 Sudoeste 14 Sudoeste 0 1016.4 -- 81
2020-09-05 02:00:00 20.5 9 Sudoeste 14 Sur 0 1016.8 -- 82
2020-09-05 01:00:00 21.3 8 Sur 13 Sur 0 1016.9 -- 80
2020-09-05 00:00:00 22.1 8 Sudeste 18 Sur 0 1017.1 -- 77
2020-09-04 23:00:00 22.5 10 Sudeste 19 Sudeste 0 1017.2 -- 75
2020-09-04 22:00:00 23.1 8 Sudeste 16 Sudeste 0 1017.3 -- 72
2020-09-04 21:00:00 24.5 9 Sudeste 20 Sudeste 0 1016.9 -- 67
2020-09-04 20:00:00 26.3 12 Sudeste 23 Sudeste 0 1016.5 -- 59
2020-09-04 19:00:00 27.7 13 Sudeste 30 Sudeste 0 1016.8 -- 54
2020-09-04 18:00:00 28.7 19 Sudeste 35 Este 0 1017.1 -- 50
2020-09-04 17:00:00 30.3 15 Sudeste 34 Sudeste 0 1017.3 -- 45
2020-09-04 16:00:00 30.3 17 Sudeste 32 Sudeste 0 1017.8 -- 47
2020-09-04 15:00:00 30.1 16 Sudeste 33 Sudeste 0 1018.5 -- 50
2020-09-04 14:00:00 30.6 16 Sudeste 32 Sudeste 0 1018.8 -- 46
2020-09-04 13:00:00 30.1 17 Sudeste 29 Sudeste 0 1019.4 -- 49
2020-09-04 12:00:00 29.9 10 Sudeste 22 Sudeste 0 1019.9 -- 46
2020-09-04 11:00:00 26.7 8 Sudeste 15 Sudeste 0 1020 -- 55
2020-09-04 10:00:00 23.7 3 Sudeste 7 Sudeste 0 1020 -- 64
2020-09-04 09:00:00 19.5 0 Calma 4 Norte 0 1019.6 -- 77
2020-09-04 08:00:00 17 3 Noroeste 5 Noroeste 0 1019.2 -- 87
2020-09-04 07:00:00 17 3 Norte 5 Nordeste 0 1018.7 -- 86
2020-09-04 06:00:00 17.5 2 Norte 10 Noroeste 0 1018.3 -- 85
2020-09-04 05:00:00 18.1 6 Norte 12 Noroeste 0 1018.2 -- 84
2020-09-04 04:00:00 19.2 3 Norte 5 Norte 0 1018.2 -- 80
2020-09-04 03:00:00 20.2 5 Sur 11 Sudeste 0 1018.4 -- 77
2020-09-04 02:00:00 20.7 7 Sudeste 10 Sudeste 0 1018.7 -- 78
2020-09-04 01:00:00 21.4 8 Sur 14 Sur 0 1018.8 -- 75
2020-09-04 00:00:00 22.1 9 Sur 15 Sudeste 0 1018.6 -- 72
2020-09-03 23:00:00 23 6 Sur 19 Sudeste 0 1018.4 -- 68
2020-09-03 22:00:00 23.7 9 Sudeste 19 Sudeste 0 1018.2 -- 66
2020-09-03 21:00:00 24.8 10 Sudeste 20 Sur 0 1017.5 -- 62
2020-09-03 20:00:00 26.8 13 Sur 30 Sur 0 1016.8 -- 55
2020-09-03 19:00:00 29.2 17 Sur 29 Sur 0 1016.5 -- 48
2020-09-03 18:00:00 30.6 16 Sur 30 Sudeste 0 1016.3 -- 47
2020-09-03 17:00:00 28.5 16 Sudeste 31 Sudeste 0 1016.2 -- 55
2020-09-03 16:00:00 31.5 15 Sudeste 28 Sudeste 0 1016.3 -- 45
2020-09-03 15:00:00 32.7 14 Sudeste 31 Sudeste 0 1016.7 -- 39
2020-09-03 14:00:00 32.6 10 Sur 21 Sudeste 0 1016.7 -- 29
2020-09-03 13:00:00 30.3 6 Este 13 Sudeste 0 1017 -- 27
2020-09-03 12:00:00 29.5 4 Nordeste 15 Noroeste 0 1017.2 -- 29
2020-09-03 11:00:00 27.4 7 Norte 19 Noroeste 0 1017.2 -- 33
2020-09-03 10:00:00 24 8 Norte 22 Norte 0 1016.9 -- 40
2020-09-03 09:00:00 20.5 8 Norte 17 Norte 0 1016.5 -- 52
2020-09-03 08:00:00 16.1 8 Norte 17 Norte 0 1016.3 -- 67
2020-09-03 07:00:00 16.1 7 Norte 12 Norte 0 1015.6 -- 81
2020-09-03 06:00:00 16.5 5 Norte 11 Norte 0 1015.4 -- 81
2020-09-03 05:00:00 17.2 7 Norte 11 Norte 0 1014.9 -- 85
2020-09-03 04:00:00 17.6 2 Norte 11 Noroeste 0 1014.9 -- 83
2020-09-03 03:00:00 18.3 5 Noroeste 8 Norte 0 1014.8 -- 80
2020-09-03 02:00:00 19.2 5 Noroeste 8 Noroeste 0 1014.8 -- 78
2020-09-03 01:00:00 19.9 2 Nordeste 6 Noroeste 0 1014.7 -- 78
2020-09-03 00:00:00 21.2 2 Norte 14 Sudeste 0 1014.1 -- 74
2020-09-02 23:00:00 22.1 9 Sudeste 22 Sur 0 1013.7 -- 70
2020-09-02 22:00:00 22.6 7 Sudeste 15 Sur 0 1013.4 -- 68
2020-09-02 21:00:00 24 9 Sur 20 Sur 0 1012.6 -- 63
2020-09-02 20:00:00 25.7 12 Sur 27 Sur 0 1011.8 -- 57
2020-09-02 19:00:00 27.8 11 Sudeste 28 Sudeste 0 1011.2 -- 50
2020-09-02 18:00:00 27.8 17 Sudeste 31 Sudeste 0 1010.9 -- 48
2020-09-02 17:00:00 28.2 13 Sudeste 28 Sudeste 0 1010.8 -- 46
2020-09-02 16:00:00 30.6 14 Sudeste 33 Sudeste 0 1010.8 -- 38
2020-09-02 15:00:00 30.5 17 Sudeste 28 Sudeste 0 1011.2 -- 35
2020-09-02 14:00:00 31.1 8 Sudeste 17 Sudeste 0 1011.2 -- 27
2020-09-02 13:00:00 29.7 7 Sur 16 Este 0 1011.6 -- 29
2020-09-02 12:00:00 29 9 Nordeste 24 Nordeste 0 1012 -- 30
2020-09-02 11:00:00 27.4 9 Nordeste 22 Norte 0 1011.8 -- 35
2020-09-02 10:00:00 25.3 9 Norte 19 Noroeste 0 1011.3 -- 38
2020-09-02 09:00:00 21.6 7 Norte 18 Norte 0 1011.1 -- 52
2020-09-02 08:00:00 18.8 8 Norte 19 Nordeste 0 1011 -- 57
2020-09-02 07:00:00 18.6 10 Norte 17 Nordeste 0 1010.3 -- 59
2020-09-02 06:00:00 18.8 9 Norte 17 Norte 0 1009.9 -- 58
2020-09-02 05:00:00 19.4 8 Norte 20 Nordeste 0 1009.5 -- 52
2020-09-02 04:00:00 19.1 9 Norte 18 Norte 0 1009.6 -- 58
2020-09-02 03:00:00 18.5 10 Norte 16 Norte 0 1009.4 -- 75
2020-09-02 02:00:00 18.7 0 Calma 13 Noroeste 0 1009 -- 71
2020-09-02 01:00:00 19.4 8 Noroeste 10 Norte 0 1008.6 -- 73
2020-09-02 00:00:00 20.8 7 Noroeste 10 Noroeste 0 1008.4 -- 74
2020-09-01 23:00:00 21.8 2 Este 8 Sudeste 0 1008.4 -- 69
2020-09-01 22:00:00 22.6 6 Sudeste 10 Sudeste 0 1008 -- 68
2020-09-01 21:00:00 23.5 5 Sudeste 17 Sur 0 1007.5 -- 68
2020-09-01 20:00:00 24.7 12 Sur 20 Sudoeste 0 1007.1 -- 65
2020-09-01 19:00:00 26 10 Sur 19 Sur 0 1007.1 -- 60
2020-09-01 18:00:00 27.2 8 Sudeste 22 Sur 0 1006.9 -- 56
2020-09-01 17:00:00 27.5 13 Sur 22 Sudeste 0 1007 -- 51
2020-09-01 16:00:00 29.4 8 Sudeste 21 Este 0 1007.1 -- 43
2020-09-01 15:00:00 29.8 9 Sudeste 22 Sudeste 0 1007.9 -- 44
2020-09-01 14:00:00 29.9 10 Sudeste 24 Sur 0 1008.4 -- 41
2020-09-01 13:00:00 28.1 8 Sudeste 19 Sudeste 0 1009.1 -- 43
2020-09-01 12:00:00 27.1 6 Sudeste 11 Sudeste 0 1009.6 -- 42
2020-09-01 11:00:00 25.8 3 Noroeste 15 Noroeste 0 1010 -- 37
2020-09-01 10:00:00 23.1 6 Norte 14 Norte 0 1009.9 -- 46
2020-09-01 09:00:00 17.8 6 Norte 14 Norte 0 1010.1 -- 64
2020-09-01 08:00:00 16 5 Norte 10 Noroeste 0 1010 -- 70
2020-09-01 07:00:00 16.1 4 Norte 6 Norte 0 1009.8 -- 73
2020-09-01 06:00:00 16.6 4 Noroeste 8 Noroeste 0 1009.9 -- 69
2020-09-01 05:00:00 17.5 5 Norte 13 Norte 0 1010.2 -- 68
2020-09-01 04:00:00 18.3 7 Noroeste 13 Norte 0 1010.6 -- 67
2020-09-01 03:00:00 18.8 6 Noroeste 9 Noroeste 0 1011 -- 66
2020-09-01 02:00:00 19.4 2 Sudeste 11 Sudeste 0 1011.5 -- 64
2020-09-01 01:00:00 20.6 8 Sudeste 14 Sudeste 0 1011.6 -- 61
2020-09-01 00:00:00 21 6 Sudeste 17 Sur 0 1011.9 -- 59
2020-08-31 23:00:00 21 6 Sur 13 Sur 0 1011.9 -- 59
2020-08-31 22:00:00 21.8 6 Sudeste 12 Sur 0 1011.9 -- 57
2020-08-31 21:00:00 22.7 6 Sudeste 21 Sur 0 1011.5 -- 51
2020-08-31 20:00:00 24.4 13 Sur 26 Sur 0 1011.2 -- 44
2020-08-31 19:00:00 25.7 12 Sudeste 27 Este 0 1011.2 -- 45
2020-08-31 18:00:00 27 12 Sudeste 23 Sudeste 0 1011.1 -- 38
2020-08-31 17:00:00 28.7 10 Sudeste 28 Sudeste 0 1011.5 -- 32
2020-08-31 16:00:00 29.1 14 Sudeste 30 Sur 0 1011.9 -- 30
2020-08-31 15:00:00 29.1 8 Este 17 Este 0 1012.4 -- 22
2020-08-31 14:00:00 29.3 8 Nordeste 23 Nordeste 0 1013.3 -- 23
2020-08-31 13:00:00 28.9 8 Nordeste 25 Norte 0 1014.1 -- 25
2020-08-31 12:00:00 27.7 12 Nordeste 29 Nordeste 0 1014.6 -- 28
2020-08-31 11:00:00 25.5 12 Nordeste 25 Norte 0 1014.8 -- 32
2020-08-31 10:00:00 22.2 10 Norte 33 Norte 0 1014.6 -- 38
2020-08-31 09:00:00 19.5 18 Noroeste 45 Noroeste 0 1014.3 -- 45
2020-08-31 08:00:00 17.8 21 Noroeste 49 Noroeste 0 1013.3 -- 49
2020-08-31 07:00:00 17.7 23 Noroeste 44 Oeste 0 1013 -- 49
2020-08-31 06:00:00 17.1 8 Noroeste 25 Noroeste 0 1013.2 -- 51
2020-08-31 05:00:00 17.1 7 Norte 15 Norte 0 1012.9 -- 51
2020-08-31 04:00:00 17.9 7 Norte 23 Noroeste 0 1013.1 -- 49
2020-08-31 03:00:00 18.5 9 Noroeste 27 Oeste 0 1013.2 -- 47
2020-08-31 02:00:00 19.3 15 Noroeste 33 Oeste 0 1013.1 -- 44
2020-08-31 01:00:00 19.8 18 Noroeste 38 Noroeste 0 1012.4 -- 43
2020-08-31 00:00:00 20.5 13 Noroeste 33 Noroeste 0 1012.5 -- 42
2020-08-30 23:00:00 20.9 13 Noroeste 32 Noroeste 0 1011.9 -- 40
2020-08-30 22:00:00 21.7 9 Noroeste 26 Oeste 0 1011.4 -- 38
2020-08-30 21:00:00 22.8 12 Noroeste 32 Norte 0 1010 -- 35
2020-08-30 20:00:00 24.4 10 Noroeste 28 Norte 0 1009 -- 31
2020-08-30 19:00:00 26.7 11 Noroeste 36 Noroeste 0 1008.4 -- 26
2020-08-30 18:00:00 27.5 14 Noroeste 37 Noroeste 0 1007.9 -- 23
2020-08-30 17:00:00 28.2 21 Oeste 37 Noroeste 0 1007.8 -- 23
2020-08-30 16:00:00 28.3 17 Oeste 46 Oeste 0 1008.1 -- 24
2020-08-30 15:00:00 27.6 16 Noroeste 43 Noroeste 0 1008.2 -- 26
2020-08-30 14:00:00 26.5 21 Noroeste 37 Noroeste 0 1008.4 -- 28
2020-08-30 13:00:00 25.5 15 Noroeste 43 Noroeste 0 1008.5 -- 31
2020-08-30 12:00:00 23.8 20 Noroeste 41 Oeste 0 1008.8 -- 34
2020-08-30 11:00:00 22.1 21 Noroeste 60 Noroeste 0 1008.5 -- 37
2020-08-30 10:00:00 20.2 23 Noroeste 53 Noroeste 0 1007.8 -- 42
2020-08-30 09:00:00 19.4 17 Noroeste 46 Noroeste 0 1007.5 -- 42
2020-08-30 08:00:00 17.8 15 Noroeste 38 Noroeste 0 1007 -- 44
2020-08-30 07:00:00 17.7 14 Noroeste 43 Noroeste 0 1006.4 -- 45
2020-08-30 06:00:00 17.7 12 Norte 42 Noroeste 0 1005.7 -- 46
2020-08-30 05:00:00 18 17 Noroeste 59 Noroeste 0 1005 -- 47
2020-08-30 04:00:00 18.2 17 Noroeste 57 Noroeste 0 1004.6 -- 50
2020-08-30 03:00:00 18.9 19 Noroeste 47 Noroeste 0 1004.6 -- 50
2020-08-30 02:00:00 19.4 9 Oeste 57 Noroeste 0 1003.8 -- 49
2020-08-30 01:00:00 20 15 Noroeste 50 Noroeste 0 1003.6 -- 48
2020-08-30 00:00:00 20.6 16 Noroeste 50 Norte 0 1003.4 -- 46
2020-08-29 23:00:00 21.2 16 Noroeste 41 Noroeste 0 1002.5 -- 43
2020-08-29 22:00:00 22.4 11 Noroeste 32 Noroeste 0 1002.4 -- 37
2020-08-29 21:00:00 23.4 14 Norte 34 Norte 0 1000.9 -- 36
2020-08-29 20:00:00 24 7 Sudeste 21 Sur 0 999.9 -- 47
2020-08-29 19:00:00 26.2 11 Sudeste 28 Noroeste 0 999.6 -- 40
2020-08-29 18:00:00 27.8 15 Noroeste 29 Oeste 0 999.1 -- 24
2020-08-29 17:00:00 27.7 7 Norte 16 Norte 0 999.2 -- 28
2020-08-29 16:00:00 25.3 7 Oeste 28 Oeste 0 999.8 -- 32
2020-08-29 15:00:00 24.8 11 Noroeste 37 Noroeste 0 999.5 -- 34
2020-08-29 14:00:00 25.5 14 Noroeste 42 Oeste 0 1000.1 -- 33
2020-08-29 13:00:00 25.1 19 Noroeste 44 Noroeste 0 1000 -- 35
2020-08-29 12:00:00 24.4 16 Noroeste 34 Noroeste 0 1000.5 -- 37
2020-08-29 11:00:00 22.4 12 Noroeste 41 Noroeste 0 1000.3 -- 41
2020-08-29 10:00:00 21 11 Noroeste 35 Norte 0 1000.3 -- 42
2020-08-29 09:00:00 20.9 14 Noroeste 45 Noroeste 0 1000 -- 40
2020-08-29 08:00:00 21.1 15 Norte 35 Norte 0 1000 -- 43
2020-08-29 07:00:00 21.1 18 Norte 36 Norte 0 999.6 -- 46
2020-08-29 06:00:00 21.2 13 Norte 34 Norte 0 999.3 -- 47
2020-08-29 05:00:00 21.5 15 Norte 36 Norte 0 999.3 -- 47
2020-08-29 04:00:00 21.7 15 Norte 36 Noroeste 0 1000.1 -- 48
2020-08-29 03:00:00 22.2 13 Noroeste 40 Norte 0 1000.4 -- 48
2020-08-29 02:00:00 22.6 11 Norte 41 Norte 0 1000.2 -- 52
2020-08-29 01:00:00 23.4 15 Norte 35 Norte 0 999.9 -- 51
2020-08-29 00:00:00 23.6 13 Norte 51 Oeste 0 999.5 -- 53
2020-08-28 23:00:00 24.6 27 Noroeste 50 Oeste 0 1000 -- 50
2020-08-28 22:00:00 24.3 8 Noroeste 22 Norte 0 999.7 -- 73
2020-08-28 21:00:00 24.2 10 Norte 20 Nordeste 0 998.8 -- 79
2020-08-28 20:00:00 25.4 10 Noroeste 23 Noroeste 0.4 998.1 -- 82
2020-08-28 19:00:00 27.7 8 Este 15 Sudeste 0 999.1 -- 80
2020-08-28 18:00:00 28.4 9 Sudeste 26 Sudeste 0 999.7 -- 73
2020-08-28 17:00:00 30.2 13 Sur 32 Sudeste 0 999.8 -- 65
2020-08-28 16:00:00 31.5 16 Sudeste 29 Sur 0 999.9 -- 60
2020-08-28 15:00:00 34.8 15 Sudeste 31 Sur 0 1000.6 -- 49
2020-08-28 14:00:00 34.7 14 Sur 24 Sudeste 0 1001.2 -- 49
2020-08-28 13:00:00 33.3 8 Sur 20 Sur 0 1002.1 -- 51
2020-08-28 12:00:00 31.8 6 Sudeste 13 Este 0 1003 -- 55
2020-08-28 11:00:00 30.1 6 Sudeste 13 Este 0 1003.6 -- 62
2020-08-28 10:00:00 27.8 4 Sur 8 Sudeste 0 1003.9 -- 72
2020-08-28 09:00:00 26.6 3 Sur 7 Sudoeste 0 1004.3 -- 81
2020-08-28 08:00:00 24.4 5 Sudoeste 9 Sudoeste 0 1004.5 -- 92
2020-08-28 07:00:00 24.4 5 Sudoeste 8 Sur 0 1004.7 -- 92
2020-08-28 06:00:00 24.8 4 Sur 8 Sur 0 1005.2 -- 91
2020-08-28 05:00:00 25.1 4 Sur 9 Sudoeste 0 1005.6 -- 90
2020-08-28 04:00:00 25.7 5 Sudeste 11 Sur 0 1006 -- 88
2020-08-28 03:00:00 25.7 6 Sur 13 Sudoeste 0 1006.5 -- 88
2020-08-28 02:00:00 25.6 7 Sudoeste 11 Sudoeste 0 1007.1 -- 88
2020-08-28 01:00:00 25.7 5 Sur 10 Sudeste 0 1007.5 -- 87
2020-08-28 00:00:00 26.2 5 Sudeste 13 Sudeste 0 1008 -- 85
2020-08-27 23:00:00 26.9 6 Sudeste 15 Sudeste 0 1008.4 -- 82
2020-08-27 22:00:00 27.2 9 Sudeste 21 Sudeste 0 1008.6 -- 80
2020-08-27 21:00:00 27.7 10 Sudeste 21 Sudeste 0 1008.4 -- 77
2020-08-27 20:00:00 29.2 11 Sudeste 23 Sudeste 0 1008.1 -- 70
2020-08-27 19:00:00 31.3 14 Sudeste 25 Sur 0 1008.7 -- 63
2020-08-27 18:00:00 34.2 10 Sudeste 28 Sudeste 0 1009.1 -- 52
2020-08-27 17:00:00 35 13 Sudeste 25 Sudeste 0 1009.5 -- 47
2020-08-27 16:00:00 34.4 14 Sudeste 26 Sudeste 0 1010.1 -- 48
2020-08-27 15:00:00 34.2 12 Sudeste 23 Este 0 1010.7 -- 50
2020-08-27 14:00:00 35.3 10 Sur 26 Sudeste 0 1011.1 -- 48
2020-08-27 13:00:00 33.3 12 Sudeste 22 Sudeste 0 1011.8 -- 53
2020-08-27 12:00:00 33.1 5 Sudeste 14 Sudeste 0 1012.3 -- 51
2020-08-27 11:00:00 30.8 4 Nordeste 10 Norte 0 1012.4 -- 58
2020-08-27 10:00:00 29 5 Este 9 Este 0 1012.3 -- 71
2020-08-27 09:00:00 25.7 3 Norte 7 Noroeste 0 1012.3 -- 85
2020-08-27 08:00:00 23.4 4 Norte 7 Norte 0 1012.4 -- 93
2020-08-27 07:00:00 23.7 0 Calma 3 Este 0 1012.1 -- 91
2020-08-27 06:00:00 23.9 0 Calma 5 Nordeste 0 1012.2 -- 91
2020-08-27 05:00:00 24.2 2 Norte 7 Oeste 0 1012.5 -- 91
2020-08-27 04:00:00 24.5 0 Calma 10 Oeste 0 1012.6 -- 89
2020-08-27 03:00:00 24.8 7 Sudoeste 9 Oeste 0 1012.7 -- 88
2020-08-27 02:00:00 25.1 3 Sudoeste 5 Noroeste 0 1012.9 -- 86
2020-08-27 01:00:00 25.5 0 Calma 6 Sudoeste 0 1012.9 -- 85
2020-08-27 00:00:00 25.9 4 Sudoeste 9 Sudeste 0 1013.1 -- 84
2020-08-26 23:00:00 26.4 5 Sudeste 11 Sudeste 0 1013.1 -- 82
2020-08-26 22:00:00 27 8 Sudeste 20 Este 0 1012.8 -- 79
2020-08-26 21:00:00 27.8 12 Sudeste 26 Sudeste 0 1012 -- 76
2020-08-26 20:00:00 28.6 13 Sudeste 32 Sudeste 0 1011.7 -- 72
2020-08-26 19:00:00 30.5 13 Sudeste 29 Sudeste 0 1011.6 -- 65
2020-08-26 18:00:00 31.9 16 Sudeste 35 Sudeste 0 1011.9 -- 59
2020-08-26 17:00:00 34 15 Sudeste 30 Sudeste 0 1012.1 -- 52
2020-08-26 16:00:00 34.5 15 Sudeste 32 Sur 0 1012.4 -- 51
2020-08-26 15:00:00 35.4 15 Sudeste 28 Sudeste 0 1012.6 -- 48
2020-08-26 14:00:00 34.6 12 Sudeste 25 Sudeste 0 1013.1 -- 50
2020-08-26 13:00:00 33.7 12 Sudeste 23 Sur 0 1013.6 -- 51
2020-08-26 12:00:00 31.9 8 Sudeste 19 Sudeste 0 1014 -- 59
2020-08-26 11:00:00 28.7 7 Sur 13 Sur 0 1013.9 -- 71
2020-08-26 10:00:00 26.5 5 Sudeste 8 Sudeste 0 1013.7 -- 78
2020-08-26 09:00:00 25.3 2 Norte 6 Norte 0 1013.4 -- 79
2020-08-26 08:00:00 23.3 2 Nordeste 9 Noroeste 0 1013.1 -- 88
2020-08-26 07:00:00 23.1 5 Noroeste 13 Norte 0 1012.8 -- 87
2020-08-26 06:00:00 23.5 5 Norte 8 Noroeste 0 1012.6 -- 87
2020-08-26 05:00:00 23.8 0 Calma 9 Sur 0 1012.3 -- 89
2020-08-26 04:00:00 24 5 Sudoeste 10 Sudoeste 0 1012.1 -- 89
2020-08-26 03:00:00 24.2 5 Sudoeste 9 Sudoeste 0 1011.8 -- 87
2020-08-26 02:00:00 24.7 5 Sudoeste 10 Sudoeste 0 1011.8 -- 83
2020-08-26 01:00:00 25.2 6 Sur 12 Sudeste 0 1011.7 -- 80
2020-08-26 00:00:00 25.9 8 Sur 14 Sur 0 1011.4 -- 77
2020-08-25 23:00:00 26.7 5 Sur 15 Sur 0 1011.2 -- 75
2020-08-25 22:00:00 27.5 8 Sur 15 Sur 0 1010.7 -- 71
2020-08-25 21:00:00 28.8 8 Sudeste 19 Sudeste 0 1009.6 -- 67
2020-08-25 20:00:00 31 8 Sudeste 20 Sudeste 0 1009.3 -- 58
2020-08-25 19:00:00 34.2 14 Sur 21 Sur 0 1009 -- 48
2020-08-25 18:00:00 35.8 11 Sur 27 Sudeste 0 1009 -- 43
2020-08-25 17:00:00 35 12 Sudeste 26 Sudeste 0 1009 -- 47
2020-08-25 16:00:00 34.6 13 Sudeste 27 Sudeste 0 1009.4 -- 48
2020-08-25 15:00:00 36.3 12 Sudeste 30 Sudeste 0 1010 -- 48
2020-08-25 14:00:00 35.1 12 Sudeste 22 Sur 0 1010.1 -- 50
2020-08-25 13:00:00 33.9 7 Sudeste 16 Sur 0 1010.3 -- 52
2020-08-25 12:00:00 32.4 6 Este 14 Este 0 1010.5 -- 53
2020-08-25 11:00:00 30.1 6 Sudeste 14 Sudeste 0 1010.5 -- 59
2020-08-25 10:00:00 28.1 4 Sudeste 11 Sur 0 1010.3 -- 64
2020-08-25 09:00:00 25.2 2 Sudeste 6 Noroeste 0 1010.2 -- 77
2020-08-25 08:00:00 22.4 5 Noroeste 8 Noroeste 0 1010.1 -- 87
2020-08-25 07:00:00 22.1 6 Noroeste 9 Noroeste 0 1009.8 -- 86
2020-08-25 06:00:00 22.5 4 Norte 8 Sudeste 0 1009.7 -- 87
2020-08-25 05:00:00 23.1 6 Sur 10 Sudeste 0 1009.9 -- 86
2020-08-25 04:00:00 23.4 5 Sur 8 Sur 0 1010 -- 85
2020-08-25 03:00:00 23.7 4 Sudoeste 10 Sudeste 0 1010.1 -- 85
2020-08-25 02:00:00 24.1 3 Sur 14 Sudeste 0 1010.3 -- 83
2020-08-25 01:00:00 24.5 6 Sudeste 9 Sudeste 0 1010.5 -- 81
2020-08-25 00:00:00 24.9 4 Sudeste 12 Sudeste 0 1010.6 -- 78
2020-08-24 23:00:00 25.4 6 Sudeste 11 Sudeste 0 1010.6 -- 75
2020-08-24 22:00:00 26.1 6 Sudeste 14 Sudeste 0 1010.4 -- 69
2020-08-24 21:00:00 27.6 9 Sudeste 21 Sur 0 1009.8 -- 60
2020-08-24 20:00:00 29.6 13 Sur 25 Sur 0 1009.5 -- 45
2020-08-24 19:00:00 30.6 12 Sudeste 26 Sudeste 0 1009.7 -- 37
2020-08-24 18:00:00 32.1 14 Sudeste 31 Sudeste 0 1010 -- 37
2020-08-24 17:00:00 33.2 13 Sudeste 30 Sudeste 0 1010.4 -- 35
2020-08-24 16:00:00 33.6 12 Sudeste 31 Sudeste 0 1011.1 -- 30
2020-08-24 15:00:00 34.1 16 Sudeste 36 Sudeste 0 1011.4 -- 27
2020-08-24 14:00:00 34.4 6 Nordeste 21 Este 0 1011.7 -- 21
2020-08-24 13:00:00 33.3 13 Nordeste 27 Nordeste 0 1012.2 -- 24
2020-08-24 12:00:00 31.7 13 Nordeste 28 Nordeste 0 1012.7 -- 26
2020-08-24 11:00:00 29.9 14 Nordeste 28 Norte 0 1012.9 -- 29
2020-08-24 10:00:00 28.1 7 Norte 26 Norte 0 1013 -- 32
2020-08-24 09:00:00 24.8 10 Norte 27 Norte 0 1012.6 -- 39
2020-08-24 08:00:00 21.9 14 Norte 32 Norte 0 1012.3 -- 47
2020-08-24 07:00:00 21.5 13 Norte 27 Norte 0 1011.9 -- 43
2020-08-24 06:00:00 21.3 7 Norte 20 Norte 0 1011.6 -- 52
2020-08-24 05:00:00 20.7 5 Norte 18 Nordeste 0 1011.9 -- 50
2020-08-24 04:00:00 20.7 4 Norte 12 Oeste 0 1012.1 -- 80
2020-08-24 03:00:00 21.5 5 Noroeste 13 Noroeste 0 1012.2 -- 77
2020-08-24 02:00:00 22.2 5 Norte 17 Norte 0 1012.5 -- 77
2020-08-24 01:00:00 22.7 5 Norte 13 Norte 0 1013 -- 78
2020-08-24 00:00:00 23.5 6 Norte 9 Noroeste 0 1013 -- 75
2020-08-23 23:00:00 24.6 6 Sudeste 12 Sudeste 0 1012.9 -- 72
2020-08-23 22:00:00 25.3 7 Sudeste 13 Sudeste 0 1012.7 -- 67
2020-08-23 21:00:00 26.9 7 Sudeste 21 Sudeste 0 1012.2 -- 60
2020-08-23 20:00:00 28.9 12 Sur 27 Sur 0 1012.1 -- 55
2020-08-23 19:00:00 31.1 13 Sur 26 Sudoeste 0 1012.3 -- 49
2020-08-23 18:00:00 32.6 12 Sur 30 Sudeste 0 1012.6 -- 44
2020-08-23 17:00:00 32.5 10 Sudeste 26 Sur 0 1013.3 -- 40
2020-08-23 16:00:00 34.7 13 Sur 24 Sudoeste 0 1013.9 -- 33
2020-08-23 15:00:00 34.1 12 Sur 23 Sur 0 1014.6 -- 31
2020-08-23 14:00:00 31.7 8 Sudeste 14 Sudeste 0 1015 -- 33
2020-08-23 13:00:00 30.7 6 Nordeste 24 Norte 0 1015.5 -- 35
2020-08-23 12:00:00 29.2 11 Nordeste 23 Nordeste 0 1015.9 -- 38
2020-08-23 11:00:00 28.6 12 Nordeste 29 Norte 0 1015.9 -- 39
2020-08-23 10:00:00 28.5 9 Norte 22 Norte 0 1015.7 -- 38
2020-08-23 09:00:00 26.6 10 Norte 22 Noroeste 0 1015.9 -- 43
2020-08-23 08:00:00 23.4 8 Norte 24 Norte 0 1015.6 -- 51
2020-08-23 07:00:00 23.8 7 Norte 29 Noroeste 0 1015.2 -- 49
2020-08-23 06:00:00 25.2 19 Noroeste 41 Noroeste 0 1014.8 -- 41
2020-08-23 05:00:00 24.4 7 Norte 17 Norte 0 1014.5 -- 44
2020-08-23 04:00:00 24.5 9 Norte 15 Norte 0 1014.6 -- 47
2020-08-23 03:00:00 24.6 7 Norte 13 Noroeste 0 1014.8 -- 62
2020-08-23 02:00:00 24.5 6 Norte 13 Norte 0 1014.9 -- 83
2020-08-23 01:00:00 25.3 4 Norte 9 Oeste 0 1014.7 -- 82
2020-08-23 00:00:00 26.3 5 Oeste 7 Sudeste 0 1014.7 -- 83
2020-08-22 23:00:00 26.7 3 Sur 12 Sudeste 0 1014.5 -- 81
2020-08-22 22:00:00 27.3 8 Sudeste 14 Sudeste 0 1013.8 -- 75
2020-08-22 21:00:00 28.3 9 Sudeste 19 Sudeste 0 1013.2 -- 68
2020-08-22 20:00:00 30 10 Sudeste 21 Sudeste 0 1012.9 -- 66
2020-08-22 19:00:00 31.8 13 Sudeste 23 Sur 0 1012.8 -- 58
2020-08-22 18:00:00 32.8 14 Sudeste 29 Sudeste 0 1013.2 -- 54
2020-08-22 17:00:00 34.8 12 Sudeste 32 Sudeste 0 1013.5 -- 49
2020-08-22 16:00:00 35.1 16 Sur 34 Sudeste 0 1013.9 -- 48
2020-08-22 15:00:00 36.9 15 Sudeste 31 Sur 0 1014 -- 38
2020-08-22 14:00:00 36.7 8 Nordeste 22 Nordeste 0 1014 -- 31
2020-08-22 13:00:00 36.6 12 Norte 31 Norte 0 1014.2 -- 31
2020-08-22 12:00:00 34.9 13 Nordeste 30 Norte 0 1014.6 -- 34
2020-08-22 11:00:00 33 11 Nordeste 31 Nordeste 0 1014.3 -- 36
2020-08-22 10:00:00 30.9 5 Norte 26 Norte 0 1014.2 -- 39
2020-08-22 09:00:00 28.5 11 Norte 24 Norte 0 1013.9 -- 50
2020-08-22 08:00:00 25 11 Norte 20 Norte 0 1012.9 -- 59
2020-08-22 07:00:00 24.3 10 Norte 18 Nordeste 0 1012.1 -- 66
2020-08-22 06:00:00 23.7 9 Norte 18 Norte 0 1011.6 -- 76
2020-08-22 05:00:00 23.8 3 Noroeste 7 Noroeste 0 1011.4 -- 92
2020-08-22 04:00:00 24.3 5 Norte 13 Oeste 0 1011.3 -- 90
2020-08-22 03:00:00 24.8 7 Oeste 14 Norte 0 1011.1 -- 89
2020-08-22 02:00:00 25 7 Norte 12 Noroeste 0 1010.9 -- 88
2020-08-22 01:00:00 25.9 0 Calma 7 Sudeste 0 1010.6 -- 87
2020-08-22 00:00:00 26.3 5 Sur 9 Sudeste 0 1010.2 -- 85
2020-08-21 23:00:00 26.9 6 Sur 13 Sur 0 1009.8 -- 82
2020-08-21 22:00:00 27.5 8 Sur 19 Sudeste 0 1009.2 -- 78
2020-08-21 21:00:00 28.5 8 Sudeste 22 Sudeste 0 1008.4 -- 72
2020-08-21 20:00:00 31 10 Sudeste 22 Sur 0 1007.7 -- 62
2020-08-21 19:00:00 33.6 11 Sudeste 25 Sudeste 0 1007.5 -- 56
2020-08-21 18:00:00 34.1 12 Sudeste 26 Sudeste 0 1007.6 -- 54
2020-08-21 17:00:00 34.9 13 Sudeste 28 Sudeste 0 1007.7 -- 52
2020-08-21 16:00:00 36 14 Sudeste 31 Sur 0 1008 -- 49
2020-08-21 15:00:00 36.3 16 Sudeste 30 Sur 0 1008.4 -- 49
2020-08-21 14:00:00 35.4 12 Sudeste 21 Sur 0 1008.3 -- 48
2020-08-21 13:00:00 34.8 8 Sur 21 Sur 0 1008.5 -- 48
2020-08-21 12:00:00 33 9 Sur 18 Sur 0 1008.7 -- 55
2020-08-21 11:00:00 31.2 7 Sur 14 Sur 0 1008.8 -- 60
2020-08-21 10:00:00 27.6 5 Sur 8 Sur 0 1008.7 -- 74
2020-08-21 09:00:00 24.6 3 Sur 6 Sudeste 0 1008.4 -- 80
2020-08-21 08:00:00 21.9 3 Este 5 Norte 0 1008 -- 87
2020-08-21 07:00:00 22 4 Noroeste 9 Noroeste 0 1007.4 -- 82
2020-08-21 06:00:00 22.5 3 Este 4 Este 0 1007 -- 89
2020-08-21 05:00:00 22.5 4 Sur 6 Sudoeste 0 1006.8 -- 90
2020-08-21 04:00:00 22.7 3 Este 7 Este 0 1006.7 -- 89
2020-08-21 03:00:00 22.7 4 Sur 11 Sur 0 1006.7 -- 88
2020-08-21 02:00:00 23.4 6 Sur 10 Sur 0 1007.1 -- 90
2020-08-21 01:00:00 24.2 5 Sur 13 Sur 0 1007 -- 88
2020-08-21 00:00:00 24.8 8 Sur 15 Sur 0 1006.6 -- 86